createdAt,value
2018-09-25T00:00:05.297Z,100830.41
2018-09-25T00:03:15.952Z,100831.53
2018-09-25T00:06:26.613Z,100834.03
2018-09-25T00:09:37.309Z,100834.55
2018-09-25T00:12:47.905Z,100834.55
2018-09-25T00:15:58.643Z,100831.20
2018-09-25T00:19:09.319Z,100828.87
2018-09-25T00:22:19.909Z,100832.33
2018-09-25T00:25:30.489Z,100835.25
2018-09-25T00:28:41.102Z,100838.69
2018-09-25T00:31:51.770Z,100833.05
2018-09-25T00:35:02.621Z,100826.95
2018-09-25T00:38:13.382Z,100834.34
2018-09-25T00:41:24.094Z,100831.82
2018-09-25T00:44:34.902Z,100838.70
2018-09-25T00:47:45.703Z,100842.14
2018-09-25T00:50:56.401Z,100838.48
2018-09-25T00:54:07.188Z,100837.58
2018-09-25T00:57:17.837Z,100836.82
2018-09-25T01:00:28.534Z,100837.83
2018-09-25T01:03:39.370Z,100841.66
2018-09-25T01:06:50.088Z,100839.68
2018-09-25T01:10:00.721Z,100824.56
2018-09-25T01:13:11.551Z,100826.72
2018-09-25T01:16:22.260Z,100825.39
2018-09-25T01:19:33.001Z,100822.09
2018-09-25T01:22:43.627Z,100828.77
2018-09-25T01:25:54.326Z,100829.28
2018-09-25T01:29:05.002Z,100823.45
2018-09-25T01:32:15.628Z,100823.96
2018-09-25T01:35:26.257Z,100821.05
2018-09-25T01:38:36.958Z,100821.20
2018-09-25T01:41:47.607Z,100831.45
2018-09-25T01:44:58.409Z,100831.22
2018-09-25T01:48:09.062Z,100829.58
2018-09-25T01:51:19.886Z,100828.28
2018-09-25T01:54:30.671Z,100828.50
2018-09-25T01:57:41.267Z,100832.71
2018-09-25T02:00:52.021Z,100835.55
2018-09-25T02:04:02.705Z,100831.20
2018-09-25T02:07:13.384Z,100840.03
2018-09-25T02:10:24.053Z,100838.58
2018-09-25T02:13:34.649Z,100838.01
2018-09-25T02:16:45.337Z,100840.55
2018-09-25T02:19:56.049Z,100843.97
2018-09-25T02:23:06.737Z,100843.48
2018-09-25T02:26:17.465Z,100845.08
2018-09-25T02:29:28.120Z,100847.48
2018-09-25T02:32:38.979Z,100851.66
2018-09-25T02:35:49.623Z,100858.16
2018-09-25T02:39:00.386Z,100856.06
2018-09-25T02:42:11.101Z,100854.14
2018-09-25T02:45:21.739Z,100850.44
2018-09-25T02:48:32.495Z,100856.06
2018-09-25T02:51:43.251Z,100855.73
2018-09-25T02:54:53.961Z,100859.40
2018-09-25T02:58:04.602Z,100858.28
2018-09-25T03:01:15.296Z,100855.81
2018-09-25T03:04:26.029Z,100856.98
2018-09-25T03:07:37.128Z,100858.83
2018-09-25T03:10:47.898Z,100861.38
2018-09-25T03:13:58.478Z,100865.88
2018-09-25T03:17:09.226Z,100867.77
2018-09-25T03:20:20.025Z,100868.06
2018-09-25T03:23:30.746Z,100864.10
2018-09-25T03:26:41.338Z,100869.33
2018-09-25T03:29:52.013Z,100864.10
2018-09-25T03:33:02.698Z,100860.44
2018-09-25T03:36:13.559Z,100860.58
2018-09-25T03:39:24.195Z,100865.81
2018-09-25T03:42:34.897Z,100864.14
2018-09-25T03:45:45.805Z,100867.95
2018-09-25T03:48:56.519Z,100870.92
2018-09-25T03:52:07.487Z,100874.34
2018-09-25T03:55:18.044Z,100871.36
2018-09-25T03:58:29.774Z,100868.27
2018-09-25T04:01:40.374Z,100875.34
2018-09-25T04:04:51.042Z,100881.84
2018-09-25T04:08:01.759Z,100885.29
2018-09-25T04:11:12.587Z,100891.06
2018-09-25T04:14:23.445Z,100889.97
2018-09-25T04:17:34.074Z,100890.54
2018-09-25T04:20:44.966Z,100895.49
2018-09-25T04:23:55.730Z,100899.95
2018-09-25T04:27:06.481Z,100908.59
2018-09-25T04:30:17.105Z,100907.28
2018-09-25T04:33:27.944Z,100913.63
2018-09-25T04:36:39.933Z,100913.36
2018-09-25T04:39:50.770Z,100911.36
2018-09-25T04:43:02.748Z,100912.27
2018-09-25T04:46:14.750Z,100920.80
2018-09-25T04:49:25.598Z,100922.52
2018-09-25T04:52:36.343Z,100917.45
2018-09-25T04:55:47.051Z,100913.92
2018-09-25T04:58:57.746Z,100925.13
2018-09-25T05:02:10.459Z,100925.77
2018-09-25T05:05:21.421Z,100926.22
2018-09-25T05:08:33.586Z,100919.73
2018-09-25T05:15:03.098Z,100907.37
2018-09-25T05:18:14.840Z,100898.02
2018-09-25T05:21:25.570Z,100889.95
2018-09-25T05:24:36.899Z,100886.42
2018-09-25T05:27:47.623Z,100883.55
2018-09-25T05:30:58.237Z,100888.27
2018-09-25T05:34:08.964Z,100889.41
2018-09-25T05:37:19.637Z,100892.35
2018-09-25T05:40:30.357Z,100890.94
2018-09-25T05:43:43.521Z,100896.43
2018-09-25T05:46:54.561Z,100906.67
2018-09-25T05:50:05.198Z,100904.50
2018-09-25T05:53:15.942Z,100910.67
2018-09-25T05:56:26.569Z,100909.27
2018-09-25T05:59:37.437Z,100912.52
2018-09-25T06:02:48.149Z,100911.52
2018-09-25T06:05:59.853Z,100916.86
2018-09-25T06:09:12.968Z,100915.89
2018-09-25T06:12:24.736Z,100910.64
2018-09-25T06:15:35.716Z,100915.25
2018-09-25T06:18:47.647Z,100917.16
2018-09-25T06:21:58.372Z,100927.45
2018-09-25T06:25:10.889Z,100920.78
2018-09-25T06:28:21.583Z,100919.81
2018-09-25T06:31:32.356Z,100923.02
2018-09-25T06:34:44.352Z,100925.39
2018-09-25T06:37:55.578Z,100922.83
2018-09-25T06:41:07.466Z,100925.73
2018-09-25T06:44:18.425Z,100941.94
2018-09-25T06:47:29.228Z,100938.63
2018-09-25T06:50:41.274Z,100943.08
2018-09-25T06:53:51.969Z,100937.62
2018-09-25T06:57:03.625Z,100939.66
2018-09-25T07:00:15.859Z,100945.83
2018-09-25T07:03:26.915Z,100944.63
2018-09-25T07:06:38.065Z,100932.45
2018-09-25T07:09:50.093Z,100943.81
2018-09-25T07:13:00.622Z,100940.56
2018-09-25T07:16:11.618Z,100943.53
2018-09-25T07:19:22.595Z,100938.73
2018-09-25T07:22:34.540Z,100950.33
2018-09-25T07:25:45.480Z,100953.71
2018-09-25T07:28:56.262Z,100950.81
2018-09-25T07:32:07.845Z,100949.52
2018-09-25T07:35:18.649Z,100953.36
2018-09-25T07:38:30.218Z,100954.31
2018-09-25T07:41:42.287Z,100954.64
2018-09-25T07:44:53.830Z,100961.26
2018-09-25T07:48:06.099Z,100967.11
2018-09-25T07:51:17.660Z,100964.12
2018-09-25T07:54:29.755Z,100966.92
2018-09-25T07:57:41.338Z,100958.13
2018-09-25T08:00:52.303Z,100963.45
2018-09-25T08:04:03.351Z,100968.78
2018-09-25T08:07:13.982Z,100968.34
2018-09-25T08:10:24.704Z,100972.17
2018-09-25T08:13:35.391Z,100979.16
2018-09-25T08:16:46.140Z,100977.18
2018-09-25T08:19:56.935Z,100976.41
2018-09-25T08:23:07.826Z,100964.38
2018-09-25T08:26:19.566Z,100974.45
2018-09-25T08:29:30.988Z,100973.91
2018-09-25T08:32:43.142Z,100969.61
2018-09-25T08:35:54.235Z,100974.48
2018-09-25T08:39:04.913Z,100978.73
2018-09-25T08:42:15.806Z,100976.41
2018-09-25T08:45:27.515Z,100984.12
2018-09-25T08:48:38.381Z,100979.95
2018-09-25T08:51:50.368Z,100981.75
2018-09-25T08:55:03.167Z,100979.61
2018-09-25T08:58:14.886Z,100986.23
2018-09-25T09:01:27.864Z,100989.12
2018-09-25T09:04:38.877Z,100981.11
2018-09-25T09:07:49.671Z,100979.85
2018-09-25T09:11:00.451Z,100978.91
2018-09-25T09:14:12.099Z,100989.45
2018-09-25T09:17:24.041Z,100986.95
2018-09-25T09:20:35.565Z,100987.09
2018-09-25T09:23:49.306Z,100981.03
2018-09-25T09:27:00.096Z,100982.52
2018-09-25T09:30:11.655Z,100985.59
2018-09-25T09:33:22.534Z,100987.08
2018-09-25T09:36:33.451Z,100987.56
2018-09-25T09:39:46.314Z,100985.78
2018-09-25T09:42:57.199Z,100990.66
2018-09-25T09:46:08.969Z,100991.67
2018-09-25T09:49:21.597Z,100987.73
2018-09-25T09:52:39.249Z,100997.17
2018-09-25T09:55:52.201Z,100987.73
2018-09-25T09:59:03.172Z,100987.99
2018-09-25T10:02:15.949Z,100980.16
2018-09-25T10:05:27.717Z,100978.05
2018-09-25T10:08:38.586Z,100976.23
2018-09-25T10:11:49.725Z,100967.97
2018-09-25T10:15:02.113Z,100967.34
2018-09-25T10:18:12.919Z,100972.98
2018-09-25T10:21:23.640Z,100974.89
2018-09-25T10:24:35.136Z,100971.38
2018-09-25T10:27:45.930Z,100963.89
2018-09-25T10:30:57.369Z,100964.47
2018-09-25T10:34:09.411Z,100960.29
2018-09-25T10:37:20.122Z,100960.68
2018-09-25T10:40:30.677Z,100952.67
2018-09-25T10:43:41.285Z,100955.70
2018-09-25T10:46:52.728Z,100954.34
2018-09-25T10:50:03.448Z,100954.61
2018-09-25T10:53:14.147Z,100948.92
2018-09-25T10:56:25.618Z,100955.94
2018-09-25T10:59:36.202Z,100941.84
2018-09-25T11:02:47.094Z,100939.31
2018-09-25T11:05:57.640Z,100946.31
2018-09-25T11:09:08.593Z,100955.50
2018-09-25T11:12:19.465Z,100945.63
2018-09-25T11:15:30.398Z,100946.36
2018-09-25T11:18:41.166Z,100939.20
2018-09-25T11:21:52.058Z,100934.22
2018-09-25T11:25:02.696Z,100940.70
2018-09-25T11:28:14.683Z,100930.34
2018-09-25T11:31:25.418Z,100934.71
2018-09-25T11:34:36.144Z,100926.50
2018-09-25T11:37:46.973Z,100934.97
2018-09-25T11:40:58.828Z,100932.41
2018-09-25T11:44:10.592Z,100930.35
2018-09-25T11:47:23.032Z,100923.44
2018-09-25T11:50:33.948Z,100929.05
2018-09-25T11:53:44.861Z,100931.11
2018-09-25T11:56:56.226Z,100932.98
2018-09-25T12:00:07.874Z,100928.94
2018-09-25T12:03:19.613Z,100930.19
2018-09-25T12:06:30.376Z,100926.11
2018-09-25T12:09:42.258Z,100917.23
2018-09-25T12:15:13.192Z,100907.59
2018-09-25T12:18:25.151Z,100912.59
2018-09-25T12:21:37.484Z,100915.91
2018-09-25T12:24:48.386Z,100908.78
2018-09-25T12:27:59.157Z,100902.95
2018-09-25T12:31:10.316Z,100906.20
2018-09-25T12:34:21.132Z,100896.20
2018-09-25T12:37:32.821Z,100893.77
2018-09-25T12:59:05.859Z,100888.20
2018-09-25T13:02:18.733Z,100890.13
2018-09-25T13:05:32.124Z,100889.47
2018-09-25T13:08:43.939Z,100874.53
2018-09-25T13:11:56.926Z,100876.11
2018-09-25T13:15:08.815Z,100879.86
2018-09-25T13:18:21.527Z,100890.96
2018-09-25T13:21:32.522Z,100896.02
2018-09-25T13:24:44.206Z,100894.99
2018-09-25T13:27:57.384Z,100879.09
2018-09-25T13:31:08.280Z,100874.06
2018-09-25T13:34:19.116Z,100874.59
2018-09-25T13:37:31.594Z,100875.36
2018-09-25T13:40:43.635Z,100861.13
2018-09-25T13:43:55.509Z,100864.44
2018-09-25T13:47:06.633Z,100857.75
2018-09-25T13:50:18.501Z,100854.91
2018-09-25T13:53:29.487Z,100844.04
2018-09-25T13:56:40.366Z,100843.53
2018-09-25T13:59:51.536Z,100841.04
2018-09-25T14:03:03.524Z,100840.41
2018-09-25T14:06:14.499Z,100840.44
2018-09-25T14:09:25.427Z,100834.08
2018-09-25T14:12:36.410Z,100824.05
2018-09-25T14:15:47.372Z,100821.91
2018-09-25T14:18:59.041Z,100808.45
2018-09-25T14:22:11.412Z,100806.15
2018-09-25T14:25:26.032Z,100821.20
2018-09-25T14:28:38.777Z,100808.92
2018-09-25T14:31:51.647Z,100805.30
2018-09-25T14:35:03.728Z,100794.48
2018-09-25T14:38:15.446Z,100794.25
2018-09-25T14:41:27.969Z,100801.34
2018-09-25T14:44:40.308Z,100798.41
2018-09-25T14:47:51.500Z,100796.32
2018-09-25T14:51:02.741Z,100795.54
2018-09-25T14:54:14.986Z,100787.13
2018-09-25T14:57:28.049Z,100790.49
2018-09-25T15:00:39.936Z,100778.55
2018-09-25T15:03:52.871Z,100784.78
2018-09-25T15:07:07.447Z,100774.95
2018-09-25T15:10:25.797Z,100775.59
2018-09-25T15:13:43.355Z,100773.14
2018-09-25T15:16:57.281Z,100775.08
2018-09-25T15:20:08.229Z,100774.82
2018-09-25T15:23:20.075Z,100780.64
2018-09-25T15:26:31.492Z,100770.91
2018-09-25T15:29:44.110Z,100771.19
2018-09-25T15:32:57.087Z,100772.30
2018-09-25T15:36:08.996Z,100776.94
2018-09-25T15:39:20.832Z,100767.81
2018-09-25T15:42:32.629Z,100758.30
2018-09-25T15:45:43.447Z,100758.30
2018-09-25T15:48:56.360Z,100770.02
2018-09-25T15:52:08.038Z,100756.96
2018-09-25T15:55:20.210Z,100764.27
2018-09-25T15:58:31.052Z,100766.58
2018-09-25T16:01:42.909Z,100767.33
2018-09-25T16:04:54.789Z,100772.50
2018-09-25T16:08:06.813Z,100767.55
2018-09-25T16:11:19.487Z,100762.11
2018-09-25T16:14:31.224Z,100770.97
2018-09-25T16:21:12.699Z,100763.87
2018-09-25T16:24:23.313Z,100771.02
2018-09-25T16:27:35.942Z,100765.30
2018-09-25T16:30:46.602Z,100763.52
2018-09-25T16:33:59.894Z,100761.72
2018-09-25T16:37:11.727Z,100756.22
2018-09-25T16:40:25.410Z,100754.39
2018-09-25T16:43:40.006Z,100760.91
2018-09-25T16:46:56.253Z,100762.87
2018-09-25T16:50:08.589Z,100758.11
2018-09-25T16:53:20.910Z,100763.59
2018-09-25T16:56:33.394Z,100759.14
2018-09-25T16:59:47.850Z,100766.64
2018-09-25T17:03:00.642Z,100769.75
2018-09-25T17:06:13.938Z,100772.95
2018-09-25T17:09:28.010Z,100780.84
2018-09-25T17:12:42.838Z,100782.00
2018-09-25T17:15:55.116Z,100784.05
2018-09-25T17:19:06.065Z,100778.73
2018-09-25T17:22:19.089Z,100788.39
2018-09-25T17:25:31.034Z,100788.12
2018-09-25T17:28:42.347Z,100792.34
2018-09-25T17:31:55.146Z,100798.77
2018-09-25T17:35:08.529Z,100794.04
2018-09-25T17:38:19.403Z,100800.32
2018-09-25T17:41:33.739Z,100807.81
2018-09-25T17:44:46.088Z,100812.39
2018-09-25T17:47:57.273Z,100818.60
2018-09-25T17:51:09.218Z,100819.42
2018-09-25T17:54:20.931Z,100818.14
2018-09-25T17:57:31.839Z,100828.35
2018-09-25T18:00:43.221Z,100828.42
2018-09-25T18:03:54.772Z,100834.02
2018-09-25T18:07:05.409Z,100841.08
2018-09-25T18:10:16.559Z,100845.57
2018-09-25T18:13:28.212Z,100850.53
2018-09-25T18:16:38.991Z,100855.59
2018-09-25T18:19:52.782Z,100851.82
2018-09-25T18:23:04.519Z,100857.42
2018-09-25T18:26:15.202Z,100854.27
2018-09-25T18:29:27.909Z,100861.86
2018-09-25T18:32:39.699Z,100863.41
2018-09-25T18:35:51.168Z,100851.88
2018-09-25T18:39:02.689Z,100876.41
2018-09-25T18:42:14.491Z,100870.98
2018-09-25T18:45:25.164Z,100874.66
2018-09-25T18:48:35.798Z,100876.69
2018-09-25T18:51:47.478Z,100875.97
2018-09-25T18:54:59.305Z,100878.18
2018-09-25T18:58:11.143Z,100885.72
2018-09-25T19:01:23.004Z,100885.00
2018-09-25T19:04:35.429Z,100877.90
2018-09-25T19:07:47.907Z,100889.39
2018-09-25T19:10:59.377Z,100882.45
2018-09-25T19:14:11.596Z,100893.44
2018-09-25T19:17:23.483Z,100891.06
2018-09-25T19:20:34.237Z,100894.17
2018-09-25T19:23:46.992Z,100888.31
2018-09-25T19:26:59.111Z,100897.27
2018-09-25T19:30:11.154Z,100901.27
2018-09-25T19:33:21.972Z,100906.76
2018-09-25T19:36:33.649Z,100904.74
2018-09-25T19:39:46.513Z,100904.92
2018-09-25T19:43:00.130Z,100903.06
2018-09-25T19:46:12.049Z,100897.39
2018-09-25T19:49:23.959Z,100896.60
2018-09-25T19:52:36.552Z,100901.15
2018-09-25T19:55:48.284Z,100910.66
2018-09-25T19:59:00.052Z,100906.97
2018-09-25T20:02:11.953Z,100912.26
2018-09-25T20:05:23.727Z,100907.47
2018-09-25T20:08:35.463Z,100906.93
2018-09-25T20:11:48.242Z,100905.22
2018-09-25T20:14:59.246Z,100913.05
2018-09-25T20:18:10.123Z,100911.74
2018-09-25T20:21:21.556Z,100903.91
2018-09-25T20:24:32.984Z,100908.45
2018-09-25T20:27:44.816Z,100903.84
2018-09-25T20:30:56.506Z,100904.18
2018-09-25T20:34:07.203Z,100897.42
2018-09-25T20:37:20.517Z,100901.22
2018-09-25T20:40:32.232Z,100898.05
2018-09-25T20:43:43.010Z,100900.56
2018-09-25T20:46:53.645Z,100896.20
2018-09-25T20:50:05.308Z,100897.27
2018-09-25T20:53:17.237Z,100897.02
2018-09-25T20:56:28.679Z,100896.22
2018-09-25T20:59:40.436Z,100900.42
2018-09-25T21:02:52.251Z,100900.05
2018-09-25T21:06:03.051Z,100894.16
2018-09-25T21:09:14.332Z,100889.80
2018-09-25T21:15:02.709Z,100890.29
2018-09-25T21:18:15.115Z,100888.64
2018-09-25T21:21:26.731Z,100887.68
2018-09-25T21:24:38.291Z,100884.97
2018-09-25T21:27:50.709Z,100869.10
2018-09-25T21:31:02.202Z,100857.25
2018-09-25T21:34:12.943Z,100854.82
2018-09-25T21:37:24.997Z,100855.97
2018-09-25T21:40:35.586Z,100852.67
2018-09-25T21:43:46.961Z,100850.86
2018-09-25T21:46:57.642Z,100839.77
2018-09-25T21:50:09.213Z,100851.24
2018-09-25T21:53:22.166Z,100853.95
2018-09-25T21:56:32.933Z,100848.79
2018-09-25T22:02:47.966Z,100844.53
2018-09-25T22:05:58.687Z,100842.89
2018-09-25T22:09:11.792Z,100840.70
2018-09-25T22:12:23.270Z,100849.41
2018-09-25T22:15:34.242Z,100850.37
2018-09-25T22:18:45.719Z,100835.62
2018-09-25T22:21:57.301Z,100831.75
2018-09-25T22:25:09.561Z,100837.73
2018-09-25T22:28:22.159Z,100828.61
2018-09-25T22:31:34.020Z,100828.38
2018-09-25T22:34:45.899Z,100835.42
2018-09-25T22:37:56.624Z,100833.23
2018-09-25T22:41:08.461Z,100826.51
2018-09-25T22:44:19.184Z,100822.24
2018-09-25T22:47:29.876Z,100823.36
2018-09-25T22:50:42.617Z,100816.64
2018-09-25T22:53:55.587Z,100812.97
2018-09-25T22:57:06.517Z,100808.79
2018-09-25T23:00:18.090Z,100819.39
2018-09-25T23:03:29.899Z,100815.94
2018-09-25T23:06:41.683Z,100809.52
2018-09-25T23:09:53.691Z,100812.14
2018-09-25T23:13:04.453Z,100812.29
2018-09-25T23:16:15.070Z,100815.35
2018-09-25T23:19:26.778Z,100813.33
2018-09-25T23:22:38.630Z,100816.91
2018-09-25T23:25:51.062Z,100810.48
2018-09-25T23:29:02.404Z,100818.09
2018-09-25T23:32:15.267Z,100822.90
2018-09-25T23:35:27.138Z,100820.69
2018-09-25T23:38:37.795Z,100800.64
2018-09-25T23:41:49.322Z,100780.30
2018-09-25T23:45:59.148Z,100783.14
2018-09-25T23:49:12.087Z,100790.28
2018-09-25T23:52:25.610Z,100800.03
2018-09-25T23:56:40.942Z,100797.48
2018-09-25T23:59:56.658Z,100794.96
